Time;durP1;ratioP1;P1;durP2;ratioP2;P2;SDS_P1;SDS_P2;PMS_P1;PMS_P2;Temp;Humidity;BMP_temperature;BMP_pressure;BME280_temperature;BME280_humidity;BME280_pressure;Samples;Min_cycle;Max_cycle;Signal;HPM_P1;HPM_P2
2021/12/23 00:01:13;;;;;;;41.05;15.63;;;;;;;-2.37;100.00;101738.03;5006129;28;20495;-84
2021/12/23 00:03:38;;;;;;;43.75;16.52;;;;;;;-2.35;100.00;101736.44;5012116;28;20400;-85
2021/12/23 00:06:03;;;;;;;40.22;16.45;;;;;;;-2.34;100.00;101734.78;5012048;28;20366;-84
2021/12/23 00:08:29;;;;;;;38.58;16.38;;;;;;;-2.34;100.00;101732.25;5015859;28;20396;-84
2021/12/23 00:10:54;;;;;;;40.65;16.40;;;;;;;-2.32;100.00;101728.09;5003983;28;20080;-84
2021/12/23 00:13:19;;;;;;;41.28;16.38;;;;;;;-2.32;100.00;101728.09;5030872;28;20377;-84
2021/12/23 00:23:45;;;;;;;;;;;;;;;-2.41;99.81;101683.75;5011503;28;20096;-84
2021/12/23 00:26:10;;;;;;;40.67;15.20;;;;;;;-2.49;99.38;101680.00;5011598;28;19909;-84
2021/12/23 00:28:35;;;;;;;41.63;15.57;;;;;;;-2.54;99.47;101678.97;5011314;28;20408;-84
2021/12/23 00:31:02;;;;;;;43.70;17.00;;;;;;;-2.58;99.57;101683.81;5011374;28;20056;-85
2021/12/23 00:33:29;;;;;;;40.40;16.25;;;;;;;-2.57;99.32;101683.91;5011651;28;20054;-84
2021/12/23 00:35:55;;;;;;;41.63;15.63;;;;;;;-2.58;99.33;101672.00;5011264;28;20036;-84
2021/12/23 00:38:34;;;;;;;37.90;15.85;;;;;;;-2.59;99.16;101665.19;5005222;28;20030;-82
2021/12/23 00:41:02;;;;;;;41.45;15.80;;;;;;;-2.59;99.41;101666.88;5011940;28;20052;-82
2021/12/23 00:43:28;;;;;;;38.78;16.05;;;;;;;-2.56;99.60;101654.31;5011376;28;20024;-82
2021/12/23 00:45:54;;;;;;;40.20;16.13;;;;;;;-2.54;99.77;101657.78;5011212;28;20490;-82
2021/12/23 00:48:19;;;;;;;42.78;16.75;;;;;;;-2.53;99.78;101667.16;5012520;28;20510;-82
2021/12/23 00:50:46;;;;;;;43.03;16.85;;;;;;;-2.53;99.79;101670.56;5018619;28;20032;-82
2021/12/23 00:53:17;;;;;;;40.33;16.67;;;;;;;-2.48;100.00;101671.59;5014616;28;20021;-82
2021/12/23 00:55:42;;;;;;;43.53;17.02;;;;;;;-2.47;99.60;101659.78;5030330;28;20037;-82
2021/12/23 00:58:08;;;;;;;37.45;15.98;;;;;;;-2.46;99.23;101656.44;5030629;28;20031;-82
2021/12/23 01:00:33;;;;;;;41.22;15.70;;;;;;;-2.44;99.46;101654.81;5029489;28;20061;-82
2021/12/23 01:03:00;;;;;;;41.47;16.23;;;;;;;-2.45;99.38;101653.94;5030302;28;20033;-82
2021/12/23 01:05:26;;;;;;;35.88;15.70;;;;;;;-2.43;99.62;101657.44;5012305;28;20049;-82
2021/12/23 01:07:51;;;;;;;40.28;15.93;;;;;;;-2.42;99.49;101655.75;5016604;28;20077;-82
2021/12/23 01:10:17;;;;;;;43.95;16.70;;;;;;;-2.36;99.99;101657.69;4993723;28;20022;-82
2021/12/23 01:12:49;;;;;;;40.92;16.65;;;;;;;-2.35;100.00;101656.88;5018018;28;20504;-82
2021/12/23 01:15:49;;;;;;;40.70;16.15;;;;;;;-2.37;100.00;101669.50;5004009;28;20116;-82
2021/12/23 01:18:10;;;;;;;42.72;16.42;;;;;;;-2.38;99.99;101676.25;5010347;28;20037;-82
2021/12/23 01:20:40;;;;;;;41.03;16.85;;;;;;;-2.40;99.72;101662.66;5010252;28;20120;-82
2021/12/23 01:23:10;;;;;;;36.55;15.73;;;;;;;-2.40;99.29;101661.78;5010592;28;20030;-82
2021/12/23 01:25:38;;;;;;;42.25;17.42;;;;;;;-2.42;99.32;101656.63;5002835;28;20192;-82
2021/12/23 01:28:06;;;;;;;43.92;16.35;;;;;;;-2.41;99.79;101645.69;5022800;28;20091;-82
2021/12/23 01:30:32;;;;;;;43.15;16.45;;;;;;;-2.37;99.75;101644.13;5017265;28;20017;-82
2021/12/23 01:32:58;;;;;;;39.75;16.85;;;;;;;-2.33;99.86;101634.97;5021701;28;20409;-82
2021/12/23 01:35:26;;;;;;;40.95;16.23;;;;;;;-2.30;99.67;101632.53;5009596;28;20488;-82
2021/12/23 01:37:52;;;;;;;34.92;15.95;;;;;;;-2.27;99.28;101627.59;5009649;28;20030;-82
2021/12/23 01:40:19;;;;;;;39.35;16.67;;;;;;;-2.22;99.73;101626.09;5009814;28;20076;-82
2021/12/23 01:42:45;;;;;;;40.28;15.85;;;;;;;-2.20;99.77;101619.44;5009880;28;20065;-82
2021/12/23 01:45:13;;;;;;;41.83;16.83;;;;;;;-2.19;99.45;101608.47;5009503;28;20050;-82
2021/12/23 01:47:40;;;;;;;36.30;15.65;;;;;;;-2.20;99.06;101619.44;5004553;28;20018;-82
2021/12/23 01:50:06;;;;;;;41.05;16.05;;;;;;;-2.20;98.76;101620.28;4991942;28;20395;-82
2021/12/23 01:52:32;;;;;;;39.30;17.02;;;;;;;-2.19;98.18;101611.00;5026801;28;20052;-82
2021/12/23 01:54:57;;;;;;;37.53;16.70;;;;;;;-2.19;98.24;101608.47;5016135;28;20038;-82
2021/12/23 01:57:23;;;;;;;41.58;16.02;;;;;;;-2.19;97.99;101601.72;5013307;28;20033;-82
2021/12/23 01:59:49;;;;;;;41.05;16.45;;;;;;;-2.19;98.14;101601.72;5028100;28;20515;-82
2021/12/23 02:02:14;;;;;;;39.13;16.55;;;;;;;-2.17;98.52;101605.16;5027610;28;20030;-82
2021/12/23 02:04:40;;;;;;;39.42;16.08;;;;;;;-2.15;98.54;101603.56;5019710;28;20400;-82
2021/12/23 02:07:05;;;;;;;41.38;16.05;;;;;;;-2.15;98.40;101592.53;5009291;28;20099;-82
2021/12/23 02:09:30;;;;;;;43.03;16.48;;;;;;;-2.19;97.94;101581.41;5009680;28;20026;-82
2021/12/23 02:11:56;;;;;;;41.42;16.77;;;;;;;-2.24;97.90;101576.94;5009019;28;20072;-82
2021/12/23 02:14:22;;;;;;;40.28;16.73;;;;;;;-2.26;97.84;101581.09;5009681;28;20033;-82
2021/12/23 02:16:48;;;;;;;44.35;16.13;;;;;;;-2.31;97.99;101580.91;5014819;28;20049;-82
2021/12/23 02:19:18;;;;;;;38.45;16.13;;;;;;;-2.36;98.09;101579.84;5009813;28;20113;-82
2021/12/23 02:21:45;;;;;;;38.35;16.05;;;;;;;-2.40;98.26;101570.41;5009192;28;20022;-82
2021/12/23 02:24:10;;;;;;;40.22;16.30;;;;;;;-2.45;98.45;101580.34;4991848;28;20025;-82
2021/12/23 02:26:41;;;;;;;41.30;17.80;;;;;;;-2.48;97.91;101566.69;5010191;28;20030;-82
2021/12/23 02:29:06;;;;;;;41.95;16.33;;;;;;;-2.52;97.75;101559.72;5023436;28;20033;-82
2021/12/23 02:31:32;;;;;;;45.25;17.88;;;;;;;-2.56;97.99;101561.28;5025138;28;20033;-82
2021/12/23 02:33:58;;;;;;;44.13;17.35;;;;;;;-2.60;97.65;101559.44;5009403;28;20025;-82
2021/12/23 02:36:24;;;;;;;41.58;16.73;;;;;;;-2.65;97.66;101560.91;5020795;28;20032;-82
2021/12/23 02:38:49;;;;;;;44.47;16.95;;;;;;;-2.65;98.01;101563.44;4993308;28;20368;-82
2021/12/23 02:41:14;;;;;;;40.20;16.88;;;;;;;-2.70;98.25;101564.94;4998808;28;20026;-82
2021/12/23 02:43:39;;;;;;;44.88;17.92;;;;;;;-2.69;98.67;101566.66;5018971;28;20030;-82
2021/12/23 02:46:05;;;;;;;38.88;16.58;;;;;;;-2.68;98.80;101580.22;5011293;28;20041;-82
2021/12/23 02:48:36;;;;;;;41.53;16.63;;;;;;;-2.65;99.19;101575.25;5015743;28;20026;-82
2021/12/23 02:51:08;;;;;;;43.47;17.83;;;;;;;-2.69;98.97;101564.13;4996400;28;20022;-82
2021/12/23 02:53:34;;;;;;;40.70;16.67;;;;;;;-2.67;98.99;101571.81;5012415;28;20075;-82
2021/12/23 02:56:03;;;;;;;42.22;18.02;;;;;;;-2.70;98.94;101559.84;4995623;28;20110;-82
2021/12/23 02:58:28;;;;;;;39.85;16.77;;;;;;;-2.71;98.99;101558.13;5029427;28;20534;-82
2021/12/23 03:00:56;;;;;;;41.90;17.52;;;;;;;-2.78;98.52;101554.47;5015932;28;20050;-82
2021/12/23 03:03:22;;;;;;;41.20;17.67;;;;;;;-2.84;98.75;101548.28;5012033;28;20022;-82
2021/12/23 03:05:49;;;;;;;41.95;17.73;;;;;;;-2.89;99.02;101543.03;5016961;28;20026;-82
2021/12/23 03:08:15;;;;;;;41.03;17.48;;;;;;;-2.96;98.84;101530.88;5031948;28;20021;-82
2021/12/23 03:10:41;;;;;;;40.25;17.27;;;;;;;-3.00;99.11;101531.53;5014110;28;20120;-82
2021/12/23 03:13:06;;;;;;;43.83;17.77;;;;;;;-3.04;98.86;101526.28;5016154;28;20056;-82
2021/12/23 03:15:31;;;;;;;39.72;16.88;;;;;;;-3.10;99.13;101531.09;5005347;28;20061;-82
2021/12/23 03:17:57;;;;;;;40.55;16.60;;;;;;;-3.18;99.08;101528.25;5022945;28;20040;-82
2021/12/23 03:20:22;;;;;;;40.10;17.00;;;;;;;-3.25;98.76;101521.19;5006146;28;20427;-82
2021/12/23 03:22:47;;;;;;;39.80;17.33;;;;;;;-3.29;98.73;101530.34;5025430;28;20033;-83
2021/12/23 03:25:13;;;;;;;40.30;17.60;;;;;;;-3.37;98.61;101529.13;5031566;28;20025;-82
2021/12/23 03:27:38;;;;;;;38.72;17.60;;;;;;;-3.41;98.76;101527.25;5004499;28;20481;-82
2021/12/23 03:30:05;;;;;;;45.47;17.55;;;;;;;-3.44;98.92;101518.66;5011658;28;20022;-83
2021/12/23 03:32:31;;;;;;;41.40;17.52;;;;;;;-3.49;98.37;101503.25;5012106;28;20030;-82
2021/12/23 03:34:56;;;;;;;41.05;16.95;;;;;;;-3.51;98.78;101492.19;5007524;28;20018;-82
2021/12/23 03:37:21;;;;;;;40.90;17.27;;;;;;;-3.52;98.79;101490.44;5024001;28;20025;-82
2021/12/23 03:39:51;;;;;;;41.97;16.58;;;;;;;-3.58;98.76;101491.06;5030969;28;20021;-82
2021/12/23 03:42:16;;;;;;;41.03;16.67;;;;;;;-3.56;99.03;101487.72;5013987;28;20026;-82
2021/12/23 03:44:41;;;;;;;38.45;16.88;;;;;;;-3.66;98.91;101489.84;5011617;28;20049;-82
2021/12/23 03:47:07;;;;;;;40.78;16.48;;;;;;;-3.66;98.96;101491.50;5019205;28;20044;-82
2021/12/23 03:49:32;;;;;;;43.13;18.02;;;;;;;-3.70;98.95;101475.34;4997041;28;20173;-82
2021/12/23 03:51:57;;;;;;;41.33;17.08;;;;;;;-3.70;98.89;101459.28;5011612;28;20030;-82
2021/12/23 03:54:23;;;;;;;39.03;16.77;;;;;;;-3.72;98.96;101448.19;5011143;28;20031;-82
2021/12/23 03:56:48;;;;;;;42.05;17.77;;;;;;;-3.74;98.96;101427.00;5004330;28;20198;-82
2021/12/23 03:59:14;;;;;;;48.05;18.27;;;;;;;-3.76;98.88;101426.09;5018791;28;20037;-82
2021/12/23 04:01:40;;;;;;;42.10;16.95;;;;;;;-3.73;99.02;101426.19;5016208;28;20042;-83
2021/12/23 04:04:05;;;;;;;43.10;16.70;;;;;;;-3.66;99.41;101425.66;4996138;28;20030;-82
2021/12/23 04:06:30;;;;;;;45.17;17.88;;;;;;;-3.60;99.77;101425.91;5005822;28;20057;-83
2021/12/23 04:08:56;;;;;;;41.03;17.55;;;;;;;-3.51;99.64;101441.50;5012228;28;20056;-82
2021/12/23 04:11:22;;;;;;;44.22;17.75;;;;;;;-3.45;99.61;101439.25;4993476;28;20028;-82
2021/12/23 04:13:48;;;;;;;39.10;16.50;;;;;;;-3.40;99.54;101434.34;5019947;28;20026;-82
2021/12/23 04:16:13;;;;;;;40.90;17.10;;;;;;;-3.43;99.37;101424.97;5024370;28;20389;-82
2021/12/23 04:18:40;;;;;;;44.83;16.38;;;;;;;-3.47;99.19;101418.03;5011412;28;20057;-83
2021/12/23 04:21:05;;;;;;;42.22;17.45;;;;;;;-3.47;99.03;101423.09;4993200;28;20113;-82
2021/12/23 04:23:32;;;;;;;40.42;16.90;;;;;;;-3.48;99.35;101421.34;5021148;28;20191;-82
2021/12/23 04:25:58;;;;;;;42.05;16.35;;;;;;;-3.39;99.88;101436.97;5028688;28;20559;-82
2021/12/23 04:28:24;;;;;;;41.70;17.27;;;;;;;-3.34;99.96;101434.59;5001989;28;20045;-82
2021/12/23 04:30:50;;;;;;;42.85;16.95;;;;;;;-3.32;100.00;101418.66;5013671;28;20029;-82
2021/12/23 04:33:16;;;;;;;41.42;16.73;;;;;;;-3.29;100.00;101415.41;5010427;28;20033;-82
2021/12/23 04:35:41;;;;;;;43.35;17.00;;;;;;;-3.30;99.89;101416.22;5010803;28;20515;-82
2021/12/23 04:38:07;;;;;;;39.47;16.50;;;;;;;-3.33;99.55;101418.59;5010894;28;20037;-82
2021/12/23 04:40:37;;;;;;;42.00;17.35;;;;;;;-3.35;99.23;101412.63;5014353;28;20044;-82
2021/12/23 04:43:05;;;;;;;44.33;18.05;;;;;;;-3.34;99.64;101414.31;5010987;28;20190;-82
2021/12/23 04:45:30;;;;;;;39.67;17.42;;;;;;;-3.34;99.85;101382.25;5023479;28;20033;-82
2021/12/23 04:47:56;;;;;;;40.28;16.92;;;;;;;-3.28;99.88;101391.81;5029631;28;20048;-82
2021/12/23 04:50:21;;;;;;;42.45;17.73;;;;;;;-3.26;99.80;101388.50;5029137;28;20021;-82
2021/12/23 04:52:47;;;;;;;42.95;17.15;;;;;;;-3.23;100.00;101383.56;5023148;28;20400;-82
2021/12/23 04:55:15;;;;;;;42.08;18.17;;;;;;;-3.18;100.00;101388.81;5014327;28;20111;-82
2021/12/23 04:57:40;;;;;;;43.08;17.05;;;;;;;-3.12;99.84;101391.59;5010607;28;20054;-82
2021/12/23 05:00:10;;;;;;;46.03;17.60;;;;;;;-3.06;100.00;101401.97;5010215;28;20148;-82
2021/12/23 05:02:35;;;;;;;44.35;18.23;;;;;;;-3.04;100.00;101389.38;5020814;28;20037;-82
2021/12/23 05:05:00;;;;;;;42.50;17.70;;;;;;;-2.98;100.00;101387.94;5013551;28;20041;-82
2021/12/23 05:07:26;;;;;;;46.33;16.98;;;;;;;-2.93;100.00;101375.44;5010128;28;20037;-82
2021/12/23 05:09:51;;;;;;;49.42;19.30;;;;;;;-2.90;100.00;101367.97;5010144;28;20021;-82
2021/12/23 05:12:16;;;;;;;45.55;18.05;;;;;;;-2.86;99.95;101368.13;5004867;28;20037;-82
2021/12/23 05:14:42;;;;;;;45.80;18.10;;;;;;;-2.79;99.68;101369.22;5000542;28;20038;-82
2021/12/23 05:17:07;;;;;;;41.15;17.52;;;;;;;-2.73;99.95;101366.09;5012314;28;20034;-82
2021/12/23 05:19:33;;;;;;;46.17;18.63;;;;;;;-2.69;99.86;101367.91;4997836;28;20065;-82
2021/12/23 05:21:58;;;;;;;44.15;18.42;;;;;;;-2.67;100.00;101367.19;5025651;28;20029;-82
2021/12/23 05:24:23;;;;;;;45.80;17.67;;;;;;;-2.61;99.97;101366.53;5029834;28;20027;-82
2021/12/23 05:26:49;;;;;;;47.17;19.38;;;;;;;-2.54;99.92;101363.44;5020944;28;20026;-82
2021/12/23 05:29:14;;;;;;;46.33;18.00;;;;;;;-2.53;99.83;101360.97;5011774;28;20022;-82
2021/12/23 05:31:40;;;;;;;46.60;18.60;;;;;;;-2.47;99.98;101351.03;5028951;28;20367;-82
2021/12/23 05:34:06;;;;;;;46.95;18.40;;;;;;;-2.42;99.72;101349.50;5029815;28;20017;-82
2021/12/23 05:36:31;;;;;;;46.42;19.10;;;;;;;-2.40;99.78;101345.38;4997147;28;20029;-82
2021/12/23 05:38:56;;;;;;;45.22;18.33;;;;;;;-2.33;99.80;101355.75;5026573;28;20031;-82
2021/12/23 05:41:26;;;;;;;51.72;18.80;;;;;;;-2.30;100.00;101366.00;4998316;28;20040;-82
2021/12/23 05:43:52;;;;;;;46.42;19.08;;;;;;;-2.29;99.71;101344.88;5028484;28;20043;-82
2021/12/23 05:46:17;;;;;;;44.97;18.33;;;;;;;-2.25;99.69;101334.88;5013691;28;20029;-82
2021/12/23 05:48:43;;;;;;;49.65;18.25;;;;;;;-2.19;99.67;101336.78;4992083;28;20038;-82
2021/12/23 05:51:08;;;;;;;49.88;18.60;;;;;;;-2.16;99.63;101337.75;5009640;28;20030;-82
2021/12/23 05:53:33;;;;;;;44.55;19.08;;;;;;;-2.14;99.51;101325.13;5009750;28;20084;-82
2021/12/23 05:55:59;;;;;;;45.22;17.63;;;;;;;-2.17;99.39;101325.88;5013351;28;20029;-82
2021/12/23 05:58:24;;;;;;;47.53;17.92;;;;;;;-2.21;99.20;101328.25;5024762;28;20512;-82
2021/12/23 06:00:53;;;;;;;44.75;18.45;;;;;;;-2.26;99.38;101337.38;5027396;28;20091;-82
2021/12/23 06:03:18;;;;;;;50.03;18.65;;;;;;;-2.30;99.25;101326.25;5009549;28;20044;-82
2021/12/23 06:05:43;;;;;;;47.80;17.77;;;;;;;-2.33;99.35;101337.97;5012036;28;20030;-82
2021/12/23 06:08:08;;;;;;;44.72;17.50;;;;;;;-2.38;99.52;101332.72;5007344;28;20060;-82
2021/12/23 06:10:34;;;;;;;54.28;19.00;;;;;;;-2.40;99.37;101340.28;5002785;28;20029;-82
2021/12/23 06:12:59;;;;;;;49.80;18.95;;;;;;;-2.42;99.50;101344.44;5023027;28;20044;-82
2021/12/23 06:15:24;;;;;;;46.63;18.50;;;;;;;-2.47;99.37;101332.41;5020870;28;20100;-82
2021/12/23 06:17:50;;;;;;;44.03;17.67;;;;;;;-2.49;99.48;101324.72;5017395;28;20044;-82
2021/12/23 06:20:15;;;;;;;41.00;17.55;;;;;;;-2.51;99.43;101330.53;5012950;28;20033;-82
2021/12/23 06:22:41;;;;;;;43.80;18.13;;;;;;;-2.52;99.33;101324.59;5011850;28;20442;-82
2021/12/23 06:25:09;;;;;;;45.42;18.17;;;;;;;-2.48;99.46;101325.59;5018940;28;20113;-82
2021/12/23 06:27:35;;;;;;;47.95;19.38;;;;;;;-2.44;99.32;101309.66;4999108;28;20076;-82
2021/12/23 06:30:01;;;;;;;49.13;18.98;;;;;;;-2.41;99.45;101299.63;5018650;28;20063;-82
2021/12/23 06:32:26;;;;;;;46.03;18.48;;;;;;;-2.38;99.35;101294.63;5032070;28;20253;-82
2021/12/23 06:34:52;;;;;;;47.72;18.75;;;;;;;-2.32;99.74;101291.47;5031415;28;20117;-82
2021/12/23 06:37:17;;;;;;;50.13;18.73;;;;;;;-2.31;99.64;101288.09;5013443;28;20029;-82
2021/12/23 06:39:44;;;;;;;47.15;18.92;;;;;;;-2.31;99.13;101299.13;5004782;28;20076;-82
2021/12/23 06:42:09;;;;;;;47.40;18.05;;;;;;;-2.34;99.00;101290.56;5018829;28;20487;-82
2021/12/23 06:44:35;;;;;;;45.30;18.20;;;;;;;-2.34;99.09;101295.63;5018685;28;20108;-82
2021/12/23 06:47:00;;;;;;;47.70;18.13;;;;;;;-2.35;99.30;101281.19;5022952;28;20113;-82
2021/12/23 06:49:26;;;;;;;45.30;17.95;;;;;;;-2.39;99.10;101270.09;5015738;28;20026;-81
2021/12/23 06:51:52;;;;;;;43.80;17.70;;;;;;;-2.40;98.84;101270.91;5023195;28;20132;-82
2021/12/23 06:54:18;;;;;;;46.95;18.08;;;;;;;-2.39;99.09;101263.31;5006704;28;20024;-82
2021/12/23 06:56:46;;;;;;;49.45;18.65;;;;;;;-2.32;99.40;101261.84;5003481;28;20092;-82
2021/12/23 06:59:14;;;;;;;51.75;19.50;;;;;;;-2.29;99.20;101266.19;5031600;28;20442;-82
2021/12/23 07:01:40;;;;;;;47.33;18.42;;;;;;;-2.19;99.66;101280.94;5017529;28;20053;-82
2021/12/23 07:04:08;;;;;;;50.67;18.95;;;;;;;-2.15;99.65;101275.13;5022211;28;20025;-83
2021/12/23 07:06:35;;;;;;;46.88;18.15;;;;;;;-2.05;99.89;101290.72;5030095;28;20025;-84
2021/12/23 07:09:05;;;;;;;50.17;18.88;;;;;;;-2.00;99.69;101289.22;5007061;28;20061;-83
2021/12/23 07:11:32;;;;;;;48.70;19.38;;;;;;;-1.94;99.37;101295.31;5012654;28;20113;-83
2021/12/23 07:13:57;;;;;;;51.70;19.88;;;;;;;-1.88;99.75;101293.84;5027740;28;20029;-84
2021/12/23 07:16:23;;;;;;;51.00;18.58;;;;;;;-1.82;99.76;101286.44;5013297;28;20044;-83
2021/12/23 07:18:48;;;;;;;48.50;18.88;;;;;;;-1.78;99.84;101289.97;5022662;28;20033;-83
2021/12/23 07:21:13;;;;;;;46.78;18.10;;;;;;;-1.73;99.72;101283.34;5010328;28;20380;-83
2021/12/23 07:23:39;;;;;;;48.38;19.30;;;;;;;-1.69;99.96;101282.63;5022431;28;20129;-83
2021/12/23 07:26:04;;;;;;;48.85;19.60;;;;;;;-1.65;99.80;101280.25;5011369;28;20113;-83
2021/12/23 07:28:29;;;;;;;44.08;18.52;;;;;;;-1.63;99.16;101287.91;5014537;28;20042;-83
2021/12/23 07:30:55;;;;;;;44.95;17.95;;;;;;;-1.59;99.62;101289.75;5028211;28;20025;-83
2021/12/23 07:33:21;;;;;;;47.05;18.25;;;;;;;-1.55;99.54;101298.31;5015104;28;20501;-83
2021/12/23 07:35:48;;;;;;;49.72;19.30;;;;;;;-1.56;99.35;101278.78;5010435;28;20092;-83
2021/12/23 07:38:13;;;;;;;44.83;18.02;;;;;;;-1.57;98.88;101275.41;4994318;28;20030;-84
2021/12/23 07:40:40;;;;;;;49.70;18.95;;;;;;;-1.53;99.23;101281.44;5024812;28;20029;-84
2021/12/23 07:43:42;;;;;;;49.00;18.48;;;;;;;-1.49;99.07;101288.34;5012572;28;20064;-83
2021/12/23 07:46:07;;;;;;;47.65;18.92;;;;;;;-1.47;98.71;101277.41;5018242;28;20037;-83
2021/12/23 07:48:33;;;;;;;50.92;18.75;;;;;;;-1.46;98.81;101283.38;5011478;28;20534;-86
2021/12/23 07:51:00;;;;;;;47.00;17.85;;;;;;;-1.43;98.97;101296.19;5016953;28;20626;-86
2021/12/23 07:53:25;;;;;;;47.17;19.10;;;;;;;-1.39;99.13;101291.25;5005503;28;20025;-86
2021/12/23 07:55:51;;;;;;;48.13;19.55;;;;;;;-1.37;99.42;101288.75;5013117;28;20100;-86
2021/12/23 07:58:16;;;;;;;53.13;19.63;;;;;;;-1.35;98.58;101282.00;5016536;28;20363;-86
2021/12/23 08:00:43;;;;;;;53.30;19.52;;;;;;;-1.34;98.31;101273.56;5011805;28;20428;-86
2021/12/23 08:03:09;;;;;;;50.40;18.90;;;;;;;-1.33;98.24;101275.31;5015378;28;20030;-86
2021/12/23 08:05:34;;;;;;;46.97;18.23;;;;;;;-1.32;97.97;101272.81;4998440;28;20341;-86
2021/12/23 08:08:00;;;;;;;43.83;18.35;;;;;;;-1.31;98.27;101268.59;5023238;28;20137;-86
2021/12/23 08:10:26;;;;;;;44.17;17.58;;;;;;;-1.27;98.30;101260.25;5006238;28;20160;-87
2021/12/23 08:12:51;;;;;;;53.40;19.40;;;;;;;-1.23;98.78;101267.16;5022008;28;20109;-84
2021/12/23 08:15:17;;;;;;;47.85;18.02;;;;;;;-1.22;98.63;101263.78;5018028;28;20026;-84
2021/12/23 08:17:42;;;;;;;47.70;17.92;;;;;;;-1.18;98.69;101265.63;5012133;28;20689;-86
2021/12/23 08:20:09;;;;;;;48.25;18.80;;;;;;;-1.14;98.62;101258.94;5015981;28;20021;-83
2021/12/23 08:22:35;;;;;;;44.85;17.90;;;;;;;-1.09;98.94;101263.31;5010727;28;20570;-85
2021/12/23 08:25:00;;;;;;;53.05;18.55;;;;;;;-1.04;98.78;101268.56;5010776;28;20269;-84
2021/12/23 08:27:28;;;;;;;53.33;19.00;;;;;;;-1.01;98.88;101266.97;5010977;28;20080;-85
2021/12/23 08:29:54;;;;;;;47.53;18.00;;;;;;;-0.97;99.44;101268.81;5002107;28;20045;-86
2021/12/23 08:32:21;;;;;;;43.90;17.98;;;;;;;-0.93;98.84;101262.09;5016758;28;20060;-84
2021/12/23 08:34:46;;;;;;;46.88;19.05;;;;;;;-0.91;98.66;101248.63;5011240;28;20511;-85
2021/12/23 08:37:12;;;;;;;53.25;19.15;;;;;;;-0.88;97.99;101247.84;5022801;28;20037;-84
2021/12/23 08:39:38;;;;;;;45.03;17.92;;;;;;;-0.85;98.31;101251.34;5026993;28;20021;-82
2021/12/23 08:42:04;;;;;;;49.28;18.42;;;;;;;-0.83;98.79;101244.63;5016424;28;20034;-82
2021/12/23 08:44:29;;;;;;;46.10;18.63;;;;;;;-0.80;98.42;101246.38;5010642;28;20072;-82
2021/12/23 08:46:54;;;;;;;51.05;19.08;;;;;;;-0.78;98.37;101237.13;5009781;28;20454;-82
2021/12/23 08:49:20;;;;;;;49.22;19.40;;;;;;;-0.76;97.96;101235.50;5011710;28;20452;-82
2021/12/23 08:51:45;;;;;;;51.88;19.38;;;;;;;-0.73;97.82;101222.84;5010498;28;20108;-81
2021/12/23 08:54:10;;;;;;;49.05;19.38;;;;;;;-0.70;97.99;101212.75;5016986;28;20030;-82
2021/12/23 08:56:36;;;;;;;47.63;18.38;;;;;;;-0.72;97.76;101216.94;5029611;28;20060;-83
2021/12/23 08:59:02;;;;;;;46.78;18.83;;;;;;;-0.72;96.64;101203.34;5030228;28;20060;-83
2021/12/23 09:01:27;;;;;;;52.17;19.33;;;;;;;-0.70;96.80;101204.25;4998629;28;20048;-82
2021/12/23 09:03:53;;;;;;;46.75;18.55;;;;;;;-0.68;96.64;101206.00;5011971;28;20540;-82
2021/12/23 09:06:18;;;;;;;46.72;18.75;;;;;;;-0.62;96.71;101205.31;5008163;28;20522;-83
2021/12/23 09:08:43;;;;;;;54.33;19.45;;;;;;;-0.57;97.34;101211.41;5012153;28;20017;-82
2021/12/23 09:11:09;;;;;;;46.72;18.40;;;;;;;-0.48;97.59;101209.09;5010374;28;20025;-82
2021/12/23 09:13:34;;;;;;;51.13;19.55;;;;;;;-0.43;97.64;101216.03;5029928;28;20036;-83
2021/12/23 09:16:00;;;;;;;52.78;20.80;;;;;;;-0.36;96.53;101209.44;5029028;28;20049;-82
2021/12/23 09:18:26;;;;;;;46.47;18.67;;;;;;;-0.30;97.47;101211.25;5023614;28;20026;-82
2021/12/23 09:20:53;;;;;;;52.35;19.52;;;;;;;-0.18;97.86;101209.03;5010819;28;20053;-82
2021/12/23 09:23:18;;;;;;;47.70;19.23;;;;;;;-0.08;97.99;101199.13;5010961;28;20017;-82
2021/12/23 09:25:46;;;;;;;50.90;19.23;;;;;;;-0.02;97.73;101204.38;5008196;28;20080;-83
2021/12/23 09:33:31;;;;;;;53.20;20.00;;;;;;;0.20;97.64;101197.25;5017257;28;20056;-82
2021/12/23 09:35:57;;;;;;;48.58;19.33;;;;;;;0.23;97.36;101192.22;5019895;28;20025;-82
2021/12/23 09:38:29;;;;;;;48.90;19.40;;;;;;;0.30;97.32;101202.59;5018525;28;20026;-81
2021/12/23 09:41:06;;;;;;;47.67;18.88;;;;;;;0.35;97.36;101189.94;5005350;28;20152;-82
2021/12/23 09:43:33;;;;;;;49.65;19.23;;;;;;;0.38;96.28;101179.81;5003526;28;20025;-82
2021/12/23 09:45:59;;;;;;;49.92;19.02;;;;;;;0.43;96.57;101175.69;5001777;28;20396;-82
2021/12/23 09:48:27;;;;;;;49.28;19.20;;;;;;;0.46;95.76;101178.31;5012769;28;20029;-81
2021/12/23 09:50:55;;;;;;;48.72;19.52;;;;;;;0.49;96.01;101167.31;5009566;28;20029;-81
2021/12/23 09:53:22;;;;;;;48.00;18.58;;;;;;;0.55;96.62;101163.19;5001789;28;20057;-81
2021/12/23 09:55:50;;;;;;;47.03;18.88;;;;;;;0.60;95.81;101160.78;5011245;28;20030;-81
2021/12/23 09:58:16;;;;;;;53.78;19.55;;;;;;;0.65;95.72;101165.13;5017188;28;20025;-81
2021/12/23 10:00:45;;;;;;;45.63;18.23;;;;;;;0.70;95.37;101168.63;5013487;28;20456;-81
2021/12/23 10:03:14;;;;;;;49.15;19.35;;;;;;;0.75;94.82;101151.72;5017045;28;20488;-81
2021/12/23 10:05:40;;;;;;;46.53;19.15;;;;;;;0.78;95.36;101148.41;5014715;28;20088;-82
2021/12/23 10:08:07;;;;;;;47.70;18.38;;;;;;;0.85;94.96;101157.03;5025746;28;20029;-82
2021/12/23 10:10:42;;;;;;;47.38;19.42;;;;;;;0.84;95.27;101148.50;5013231;28;20037;-82
2021/12/23 10:26:58;;;;;;;52.42;20.25;;;;;;;0.91;94.45;101149.50;5003353;28;20030;-82
2021/12/23 10:30:21;;;;;;;52.30;20.25;;;;;;;1.41;94.71;101114.72;5011498;28;20103;-81
2021/12/23 10:33:09;;;;;;;47.17;18.33;;;;;;;1.44;94.10;101097.75;5014397;28;20036;-83
2021/12/23 10:38:27;;;;;;;46.95;19.15;;;;;;;1.48;93.43;101084.22;5025584;28;20111;-82
2021/12/23 10:40:56;;;;;;;47.72;19.08;;;;;;;1.50;92.95;101082.53;5028084;28;20026;-82
2021/12/23 10:43:25;;;;;;;49.92;18.85;;;;;;;1.55;93.88;101080.06;5023895;28;20143;-82
2021/12/23 10:45:56;;;;;;;47.60;18.58;;;;;;;1.58;93.74;101073.31;5009669;28;20078;-81
2021/12/23 10:48:27;;;;;;;48.47;18.85;;;;;;;1.62;92.58;101068.25;5012255;28;20483;-82
2021/12/23 10:51:01;;;;;;;49.58;18.42;;;;;;;1.66;93.02;101062.34;5015634;28;20029;-82
2021/12/23 10:59:07;;;;;;;46.25;17.85;;;;;;;1.82;93.37;101049.84;5016617;28;20045;-86
2021/12/23 11:01:36;;;;;;;46.05;18.20;;;;;;;1.83;92.40;101043.03;5009100;28;20041;-86
2021/12/23 11:04:05;;;;;;;46.83;18.60;;;;;;;1.85;93.14;101044.75;5010079;28;20393;-85
2021/12/23 11:06:45;;;;;;;46.97;18.30;;;;;;;1.88;93.15;101038.84;5010797;28;20072;-85
2021/12/23 11:09:32;;;;;;;45.33;17.90;;;;;;;1.87;92.69;101034.56;5026469;28;20025;-85
2021/12/23 11:30:11;;;;;;;44.65;17.77;;;;;;;1.94;92.26;101004.00;5027184;28;20044;-86
2021/12/23 11:37:55;;;;;;;46.97;18.02;;;;;;;2.09;91.94;100990.59;5014804;28;20041;-84
2021/12/23 11:45:31;;;;;;;50.03;18.85;;;;;;;2.30;91.36;100972.09;5017934;28;20038;-85
2021/12/23 11:47:57;;;;;;;49.55;19.15;;;;;;;2.36;90.66;100969.59;5013474;28;20025;-84
2021/12/23 11:50:30;;;;;;;47.92;19.65;;;;;;;2.43;90.94;100968.84;5000945;28;20041;-85
2021/12/23 11:52:56;;;;;;;49.95;19.50;;;;;;;2.52;90.32;100957.84;5016511;28;20018;-84
2021/12/23 11:55:21;;;;;;;47.33;19.33;;;;;;;2.59;90.67;100950.25;5008652;28;20103;-84
2021/12/23 11:57:48;;;;;;;50.10;19.55;;;;;;;2.66;89.93;100944.34;5011812;28;20030;-84
2021/12/23 12:00:19;;;;;;;49.97;19.15;;;;;;;2.72;89.97;100934.19;5014371;28;20061;-80
2021/12/23 12:02:57;;;;;;;45.47;18.63;;;;;;;2.79;90.03;100932.53;5011134;28;20420;-80
2021/12/23 12:05:22;;;;;;;47.35;18.33;;;;;;;2.83;89.99;100923.16;5029884;28;20021;-79
2021/12/23 12:08:03;;;;;;;46.97;17.85;;;;;;;2.86;90.07;100913.84;5027832;28;20047;-79
2021/12/23 12:10:28;;;;;;;42.05;17.58;;;;;;;2.91;90.13;100913.88;5031117;28;20030;-80
2021/12/23 12:13:00;;;;;;;48.10;18.17;;;;;;;2.98;90.02;100906.25;5026451;28;20373;-83